Avo Tiburcio — CUMJ9 — position and weather

sailwx.info

Track history (hours):
 
Tides and Currents Weather Stations Pressure Air Temp Water Temp Dewpoint Dewpoint Depression Visibility Wind Speed Wind Dir Waves Ship Positions

Avo Tiburcio

Last reported at 2017-Nov-17 10:12 UTC. Time now 2017-Nov-21 17:13 UTC.
Position N 37°57' W 008°52'.

Length 24 m.

Type: Fishing. MMSI: 263415870.

Date/timePositionNaut miles runAvg speedWind from/ knotsBaromVisibWave heightAir tempDewpointWater temp
2017-Nov-17 10:12N 37°57' W 008°52'1 4.9
2017-Nov-17 10:00N 37°56' W 008°53'3 6.3
2017-Nov-17 09:30N 37°59' W 008°56'0 0.7
2017-Nov-17 09:00N 37°59' W 008°55'1 1.1
2017-Nov-17 08:30N 37°58' W 008°55'0 0.6
2017-Nov-17 08:00N 37°59' W 008°55'0 0.4
2017-Nov-17 07:30N 37°59' W 008°55'0 0.9
2017-Nov-17 07:00N 37°59' W 008°55'1 2.1
2017-Nov-17 06:30N 37°58' W 008°55'2 0.1
2017-Nov-16 11:52N 37°57' W 008°52'2 4.6
2017-Nov-16 11:30N 37°58' W 008°54'1 1.8
2017-Nov-16 11:00N 37°59' W 008°54'0 0.1
2017-Nov-16 10:30N 37°59' W 008°54'1 2.1
2017-Nov-16 10:00N 37°59' W 008°55'0 0.5
2017-Nov-16 09:30N 37°59' W 008°55'0 0.2
2017-Nov-16 09:00N 37°59' W 008°55'0 0.4
2017-Nov-16 08:30N 37°59' W 008°55'1 1.8
2017-Nov-16 08:00N 37°58' W 008°56'0 0.4
2017-Nov-16 07:30N 37°58' W 008°56'0 0.9
2017-Nov-16 07:00N 37°59' W 008°55'1 2.4
2017-Nov-16 06:30N 37°58' W 008°55'2 0.1
2017-Nov-15 09:45N 37°57' W 008°52'1 4.3
2017-Nov-15 09:31N 37°56' W 008°53'3 6.8
2017-Nov-15 09:00N 37°59' W 008°56'0 0.6
2017-Nov-15 08:30N 37°59' W 008°56'0 0.6
2017-Nov-15 08:00N 37°59' W 008°55'0 0.4
2017-Nov-15 07:30N 37°59' W 008°55'1 1.2
2017-Nov-15 07:00N 37°59' W 008°55'1 1.8
2017-Nov-15 06:30N 37°59' W 008°55'3 5.8
2017-Nov-15 06:00N 37°57' W 008°52'0 0.0
2017-Nov-14 14:26N 37°57' W 008°52'0 0.2
2017-Nov-14 14:00N 37°57' W 008°52'0 0.0
2017-Nov-14 13:30N 37°57' W 008°52'2 4.1
2017-Nov-14 13:00N 37°58' W 008°55'5 9.2
2017-Nov-14 12:30N 38°02' W 008°52'611.3
2017-Nov-14 12:00N 38°08' W 008°51'1 1.1
2017-Nov-14 11:30N 38°08' W 008°50'0 0.3
2017-Nov-14 11:00N 38°08' W 008°50'3 5.6
2017-Nov-14 10:30N 38°10' W 008°48'9 2.2
2017-Nov-14 06:14N 38°01' W 008°52'2 9.3
2017-Nov-14 06:01N 37°59' W 008°53'3 5.4
2017-Nov-14 05:30N 37°57' W 008°52'13 0.5
2017-Nov-13 02:01N 38°09' W 008°50'4 8.9
2017-Nov-13 01:30N 38°05' W 008°50'5 9.8
2017-Nov-13 01:00N 38°00' W 008°52'4 7.3
2017-Nov-13 00:31N 37°56' W 008°53'  
2017-Nov-10 12:46N 37°57' W 008°52'1 4.7
2017-Nov-10 12:31N 37°57' W 008°54'5 9.4
2017-Nov-10 12:01N 38°01' W 008°51'0 0.4
2017-Nov-10 11:31N 38°01' W 008°51'0 0.2
2017-Nov-10 11:00N 38°01' W 008°51'0 0.7
2017-Nov-10 10:31N 38°02' W 008°51'0 0.2
2017-Nov-10 10:01N 38°02' W 008°51'0 0.3
2017-Nov-10 09:31N 38°02' W 008°51'4 7.2
2017-Nov-10 09:00N 38°05' W 008°50'3 6.6
2017-Nov-10 08:30N 38°09' W 008°49'5 9.6
2017-Nov-10 08:01N 38°13' W 008°48'16 2.2
2017-Nov-10 00:43N 37°58' W 008°54'2 9.7
2017-Nov-10 00:30N 37°56' W 008°53'  
2017-Nov-07 14:03N 37°57' W 008°52'0 0.1
2017-Nov-07 14:00N 37°57' W 008°52'0 0.2
2017-Nov-07 13:30N 37°57' W 008°52'0 0.0
2017-Nov-07 13:00N 37°57' W 008°52'0 0.0
2017-Nov-07 12:30N 37°57' W 008°52'1 2.4
2017-Nov-07 12:01N 37°58' W 008°54'5 9.0
2017-Nov-07 11:31N 38°02' W 008°51'0 0.4
2017-Nov-07 11:00N 38°02' W 008°51'0 0.4
2017-Nov-07 10:30N 38°02' W 008°51'  
Track history (hours):
 
Tides and Currents Weather Stations Pressure Air Temp Water Temp Dewpoint Dewpoint Depression Visibility Wind Speed Wind Dir Waves Ship Positions

Avo Tiburcio

Last reported at 2017-Nov-17 10:12 UTC. Time now 2017-Nov-21 17:13 UTC.
Position N 37°57' W 008°52'.

Length 24 m.

Type: Fishing. MMSI: 263415870.

Date/timePositionNaut miles runAvg speedWind from/ knotsBaromVisibWave heightAir tempDewpointWater temp
2017-Nov-17 10:12N 37°57' W 008°52'1 4.9
2017-Nov-17 10:00N 37°56' W 008°53'3 6.3
2017-Nov-17 09:30N 37°59' W 008°56'0 0.7
2017-Nov-17 09:00N 37°59' W 008°55'1 1.1
2017-Nov-17 08:30N 37°58' W 008°55'0 0.6
2017-Nov-17 08:00N 37°59' W 008°55'0 0.4
2017-Nov-17 07:30N 37°59' W 008°55'0 0.9
2017-Nov-17 07:00N 37°59' W 008°55'1 2.1
2017-Nov-17 06:30N 37°58' W 008°55'2 0.1
2017-Nov-16 11:52N 37°57' W 008°52'2 4.6
2017-Nov-16 11:30N 37°58' W 008°54'1 1.8
2017-Nov-16 11:00N 37°59' W 008°54'0 0.1
2017-Nov-16 10:30N 37°59' W 008°54'1 2.1
2017-Nov-16 10:00N 37°59' W 008°55'0 0.5
2017-Nov-16 09:30N 37°59' W 008°55'0 0.2
2017-Nov-16 09:00N 37°59' W 008°55'0 0.4
2017-Nov-16 08:30N 37°59' W 008°55'1 1.8
2017-Nov-16 08:00N 37°58' W 008°56'0 0.4
2017-Nov-16 07:30N 37°58' W 008°56'0 0.9
2017-Nov-16 07:00N 37°59' W 008°55'1 2.4
2017-Nov-16 06:30N 37°58' W 008°55'2 0.1
2017-Nov-15 09:45N 37°57' W 008°52'1 4.3
2017-Nov-15 09:31N 37°56' W 008°53'3 6.8
2017-Nov-15 09:00N 37°59' W 008°56'0 0.6
2017-Nov-15 08:30N 37°59' W 008°56'0 0.6
2017-Nov-15 08:00N 37°59' W 008°55'0 0.4
2017-Nov-15 07:30N 37°59' W 008°55'1 1.2
2017-Nov-15 07:00N 37°59' W 008°55'1 1.8
2017-Nov-15 06:30N 37°59' W 008°55'3 5.8
2017-Nov-15 06:00N 37°57' W 008°52'0 0.0
2017-Nov-14 14:26N 37°57' W 008°52'0 0.2
2017-Nov-14 14:00N 37°57' W 008°52'0 0.0
2017-Nov-14 13:30N 37°57' W 008°52'2 4.1
2017-Nov-14 13:00N 37°58' W 008°55'5 9.2
2017-Nov-14 12:30N 38°02' W 008°52'611.3
2017-Nov-14 12:00N 38°08' W 008°51'1 1.1
2017-Nov-14 11:30N 38°08' W 008°50'0 0.3
2017-Nov-14 11:00N 38°08' W 008°50'3 5.6
2017-Nov-14 10:30N 38°10' W 008°48'9 2.2
2017-Nov-14 06:14N 38°01' W 008°52'2 9.3
2017-Nov-14 06:01N 37°59' W 008°53'3 5.4
2017-Nov-14 05:30N 37°57' W 008°52'13 0.5
2017-Nov-13 02:01N 38°09' W 008°50'4 8.9
2017-Nov-13 01:30N 38°05' W 008°50'5 9.8
2017-Nov-13 01:00N 38°00' W 008°52'4 7.3
2017-Nov-13 00:31N 37°56' W 008°53'  
2017-Nov-10 12:46N 37°57' W 008°52'1 4.7
2017-Nov-10 12:31N 37°57' W 008°54'5 9.4
2017-Nov-10 12:01N 38°01' W 008°51'0 0.4
2017-Nov-10 11:31N 38°01' W 008°51'0 0.2
2017-Nov-10 11:00N 38°01' W 008°51'0 0.7
2017-Nov-10 10:31N 38°02' W 008°51'0 0.2
2017-Nov-10 10:01N 38°02' W 008°51'0 0.3
2017-Nov-10 09:31N 38°02' W 008°51'4 7.2
2017-Nov-10 09:00N 38°05' W 008°50'3 6.6
2017-Nov-10 08:30N 38°09' W 008°49'5 9.6
2017-Nov-10 08:01N 38°13' W 008°48'16 2.2
2017-Nov-10 00:43N 37°58' W 008°54'2 9.7
2017-Nov-10 00:30N 37°56' W 008°53'  
2017-Nov-07 14:03N 37°57' W 008°52'0 0.1
2017-Nov-07 14:00N 37°57' W 008°52'0 0.2
2017-Nov-07 13:30N 37°57' W 008°52'0 0.0
2017-Nov-07 13:00N 37°57' W 008°52'0 0.0
2017-Nov-07 12:30N 37°57' W 008°52'1 2.4
2017-Nov-07 12:01N 37°58' W 008°54'5 9.0
2017-Nov-07 11:31N 38°02' W 008°51'0 0.4
2017-Nov-07 11:00N 38°02' W 008°51'0 0.4
2017-Nov-07 10:30N 38°02' W 008°51'  

Dump ship's entire track history